createdAt,value
2022-11-24T06:09:27.904Z,11.52
2022-11-24T06:11:56.218Z,13.35
2022-11-24T06:14:24.405Z,14.30
2022-11-24T06:16:52.200Z,14.57
2022-11-24T06:19:19.838Z,12.50
2022-11-24T06:21:47.714Z,17.90
2022-11-24T06:24:15.395Z,19.50
2022-11-24T06:26:43.268Z,14.88
2022-11-24T06:29:10.913Z,16.98
2022-11-24T06:31:38.749Z,13.82
2022-11-24T06:34:07.780Z,14.38
2022-11-24T06:36:35.488Z,12.60
2022-11-24T06:39:03.325Z,11.45
2022-11-24T06:41:30.987Z,9.93
2022-11-24T06:43:58.577Z,11.75
2022-11-24T06:46:26.328Z,9.70
2022-11-24T06:48:54.064Z,9.02
2022-11-24T06:51:21.795Z,8.95
2022-11-24T06:53:49.519Z,7.57
2022-11-24T06:56:18.988Z,9.70
2022-11-24T06:58:48.831Z,21.98
2022-11-24T07:01:27.191Z,12.50
2022-11-24T07:03:55.758Z,7.80
2022-11-24T07:06:24.113Z,9.82
2022-11-24T07:08:52.041Z,4.90
2022-11-24T07:11:21.952Z,9.90
2022-11-24T07:13:56.520Z,11.52
2022-11-24T07:16:27.481Z,17.20
2022-11-24T07:18:55.489Z,8.82
2022-11-24T07:21:23.939Z,14.68
2022-11-24T07:23:55.509Z,9.00
2022-11-24T07:26:23.538Z,10.80
2022-11-24T07:28:51.503Z,7.35
2022-11-24T07:31:21.139Z,6.75
2022-11-24T07:33:53.219Z,5.50
2022-11-24T07:36:21.555Z,8.10
2022-11-24T07:38:49.214Z,8.65
2022-11-24T07:41:18.402Z,7.63
2022-11-24T07:43:46.238Z,8.43
2022-11-24T07:46:15.217Z,6.55
2022-11-24T07:48:42.884Z,7.10
2022-11-24T07:51:10.666Z,12.95
2022-11-24T07:53:38.717Z,10.80
2022-11-24T07:56:07.829Z,9.32
2022-11-24T07:58:36.742Z,10.68
2022-11-24T08:01:16.091Z,8.20
2022-11-24T08:03:44.189Z,6.80
2022-11-24T08:06:32.584Z,10.35
2022-11-24T08:09:00.097Z,6.70
2022-11-24T08:11:27.787Z,6.88
2022-11-24T08:13:55.855Z,8.20
2022-11-24T08:16:23.675Z,4.68
2022-11-24T08:18:53.171Z,9.45
2022-11-24T08:21:20.812Z,6.07
2022-11-24T08:23:48.513Z,8.05
2022-11-24T08:26:18.068Z,5.32
2022-11-24T08:28:46.342Z,4.78
2022-11-24T08:31:16.090Z,13.23
2022-11-24T08:33:43.792Z,7.22
2022-11-24T08:36:13.467Z,10.85
2022-11-24T08:38:41.376Z,6.07
2022-11-24T08:41:10.993Z,8.02
2022-11-24T08:43:38.850Z,12.68
2022-11-24T08:46:11.340Z,10.70
2022-11-24T08:48:39.129Z,11.75
2022-11-24T08:51:08.628Z,9.68
2022-11-24T08:53:36.702Z,10.00
2022-11-24T08:56:04.616Z,8.80
2022-11-24T08:58:32.470Z,7.45
2022-11-24T09:01:14.358Z,11.50
2022-11-24T09:03:48.550Z,6.20
2022-11-24T09:06:25.918Z,4.93
2022-11-24T09:08:53.992Z,6.18
2022-11-24T09:11:21.868Z,8.05
2022-11-24T09:13:49.842Z,8.02
2022-11-24T09:16:22.398Z,7.28
2022-11-24T09:18:58.042Z,9.88
2022-11-24T09:21:25.985Z,4.75
2022-11-24T09:23:54.019Z,6.43
2022-11-24T09:26:22.966Z,6.65
2022-11-24T09:28:54.480Z,5.80
2022-11-24T09:31:36.225Z,8.10
2022-11-24T09:34:05.070Z,9.48
2022-11-24T09:36:32.899Z,5.15
2022-11-24T09:39:00.747Z,4.40
2022-11-24T09:42:02.685Z,6.13
2022-11-24T09:44:55.525Z,2.88
2022-11-24T09:47:54.131Z,4.88
2022-11-24T09:50:25.474Z,5.32
2022-11-24T09:53:20.055Z,4.40
2022-11-24T09:55:52.058Z,4.45
2022-11-24T09:58:45.930Z,4.30
2022-11-24T10:01:28.722Z,6.72
2022-11-24T10:03:59.854Z,3.95
2022-11-24T10:07:13.483Z,4.43
2022-11-24T10:10:05.794Z,3.33
2022-11-24T10:13:01.611Z,4.60
2022-11-24T10:15:45.172Z,8.40
2022-11-24T10:18:16.784Z,7.53
2022-11-24T10:21:03.136Z,5.18
2022-11-24T10:23:47.023Z,3.88
2022-11-24T10:26:31.569Z,5.55
2022-11-24T10:28:59.269Z,3.80
2022-11-24T10:31:37.707Z,4.88
2022-11-24T10:34:19.361Z,3.03
2022-11-24T10:37:11.865Z,6.13
2022-11-24T10:39:46.832Z,4.63
2022-11-24T10:42:20.715Z,4.25
2022-11-24T10:44:48.418Z,2.70
2022-11-24T10:47:20.252Z,3.78
2022-11-24T10:49:55.159Z,3.38
2022-11-24T10:52:22.868Z,2.05
2022-11-24T10:54:54.680Z,1.40
2022-11-24T10:57:33.671Z,1.98
2022-11-24T11:00:02.517Z,2.15
2022-11-24T11:02:36.904Z,4.88
2022-11-24T11:05:26.513Z,3.55
2022-11-24T11:08:29.456Z,2.45
2022-11-24T11:11:15.034Z,2.63
2022-11-24T11:14:03.118Z,4.47
2022-11-24T11:16:53.249Z,5.80
2022-11-24T11:19:51.821Z,4.63
2022-11-24T11:22:29.116Z,6.93
2022-11-24T11:25:10.419Z,2.17
2022-11-24T11:27:38.694Z,2.63
2022-11-24T11:36:13.005Z,2.08
2022-11-24T11:38:40.925Z,2.95
2022-11-24T11:41:14.177Z,3.90
2022-11-24T11:43:41.886Z,6.75
2022-11-24T11:46:13.971Z,3.50
2022-11-24T11:48:44.907Z,2.13
2022-11-24T11:51:24.356Z,2.58
2022-11-24T11:54:16.358Z,2.38
2022-11-24T11:56:45.431Z,2.90
2022-11-24T11:59:41.477Z,1.60
2022-11-24T12:02:33.425Z,3.47
2022-11-24T12:05:06.481Z,4.60
2022-11-24T12:07:58.547Z,1.35
2022-11-24T12:10:46.642Z,4.18
2022-11-24T12:13:32.247Z,1.85
2022-11-24T12:16:08.833Z,4.07
2022-11-24T12:19:14.714Z,3.15
2022-11-24T12:21:45.548Z,2.97
2022-11-24T12:24:19.360Z,3.67
2022-11-24T12:27:00.173Z,1.77
2022-11-24T12:29:49.237Z,1.88
2022-11-24T12:32:30.138Z,3.45
2022-11-24T12:35:14.521Z,1.38
2022-11-24T12:38:01.969Z,1.50
2022-11-24T12:40:45.270Z,1.27
2022-11-24T12:43:33.804Z,2.03
2022-11-24T12:46:14.050Z,1.27
2022-11-24T12:48:57.632Z,3.33
2022-11-24T12:51:31.729Z,2.05
2022-11-24T12:53:59.791Z,3.17
2022-11-24T12:56:49.229Z,3.22
2022-11-24T12:59:45.748Z,3.95
2022-11-24T13:02:41.477Z,2.30
2022-11-24T13:05:15.309Z,1.92
2022-11-24T13:07:47.758Z,6.00
2022-11-24T13:10:46.482Z,5.70
2022-11-24T13:13:13.465Z,2.78
2022-11-24T13:16:07.027Z,2.13
2022-11-24T13:18:54.004Z,1.98
2022-11-24T13:21:52.880Z,1.73
2022-11-24T13:24:24.521Z,2.72
2022-11-24T13:26:54.524Z,2.45
2022-11-24T13:29:28.387Z,2.97
2022-11-24T13:32:05.087Z,2.50
2022-11-24T13:34:45.912Z,2.95
2022-11-24T13:37:32.043Z,4.40
2022-11-24T13:40:12.366Z,4.55
2022-11-24T13:42:56.204Z,1.67
2022-11-24T13:45:39.006Z,3.38
2022-11-24T13:48:22.817Z,3.83
2022-11-24T13:50:51.110Z,2.58
2022-11-24T13:53:21.931Z,4.93
2022-11-24T13:55:57.685Z,3.22
2022-11-24T13:58:37.853Z,3.83
2022-11-24T14:01:25.299Z,3.25
2022-11-24T14:06:56.183Z,3.63
2022-11-24T14:09:36.149Z,3.45
2022-11-24T14:12:15.877Z,5.68
2022-11-24T14:14:44.602Z,2.70
2022-11-24T14:17:15.339Z,4.38
2022-11-24T14:19:44.759Z,5.82
2022-11-24T14:22:20.080Z,4.75
2022-11-24T14:24:56.027Z,2.67
2022-11-24T14:27:29.639Z,7.15
2022-11-24T14:30:21.306Z,4.45
2022-11-24T14:33:02.454Z,2.53
2022-11-24T14:35:31.732Z,1.90
2022-11-24T14:38:01.538Z,7.45
2022-11-24T14:40:48.857Z,3.25
2022-11-24T14:43:32.117Z,7.15
2022-11-24T14:46:09.451Z,8.68
2022-11-24T14:48:37.681Z,10.68
2022-11-24T14:51:06.901Z,10.77
2022-11-24T14:53:35.191Z,12.95
2022-11-24T14:56:32.558Z,8.20
2022-11-24T14:59:00.217Z,7.35
2022-11-24T15:01:27.913Z,7.50
2022-11-24T15:07:24.198Z,6.68
2022-11-24T15:09:58.180Z,2.58
2022-11-24T15:12:34.481Z,3.53
2022-11-24T15:15:21.396Z,7.82
2022-11-24T15:18:18.754Z,2.22
2022-11-24T15:20:46.485Z,3.65
2022-11-24T15:23:13.976Z,5.40
2022-11-24T15:25:42.222Z,4.30
2022-11-24T15:28:09.835Z,4.45
2022-11-24T15:30:37.887Z,5.65
2022-11-24T15:33:17.210Z,3.75
2022-11-24T15:35:45.537Z,5.70
2022-11-24T15:38:13.501Z,4.75
2022-11-24T15:40:43.201Z,9.60
2022-11-24T15:43:27.819Z,5.50
2022-11-24T15:45:55.586Z,6.00
2022-11-24T15:48:23.531Z,3.95
2022-11-24T15:50:52.282Z,4.82
2022-11-24T15:53:20.300Z,7.28
2022-11-24T15:55:48.411Z,9.65
2022-11-24T15:58:16.234Z,2.67
2022-11-24T16:00:44.257Z,6.47
2022-11-24T16:03:44.952Z,4.63
2022-11-24T16:06:00.048Z,8.50
2022-11-24T16:08:28.045Z,4.80
2022-11-24T16:10:56.242Z,3.30
2022-11-24T16:13:24.283Z,3.22
2022-11-24T16:15:52.031Z,2.03
2022-11-24T16:18:20.120Z,5.97
2022-11-24T16:20:48.070Z,2.17
2022-11-24T16:23:15.822Z,5.68
2022-11-24T16:25:43.851Z,4.45
2022-11-24T16:28:11.532Z,4.72
